LDZA/ZAG METAR and TAF weather

Enter ICAO airport designator
Station Type Date Time Source
LDZA METAR 2020/10/20 16:30 UTC NOAA

LDZA 201630Z 36002KT CAVOK 13/09 Q1023 NOSIG


Station Type Date Time Source
LDZA Decoded METAR 2020/10/20 16:30 UTC NOAA

Zagreb / Pleso, Croatia (LDZA) 45-44N 016-04E 107M
Oct 20, 2020 - 12:30 PM EDT / 2020.10.20 1630 UTC
Wind: from the N (360 degrees) at 2 MPH (2 KT):0
Visibility: greater than 7 mile(s):0
Temperature: 55 F (13 C)
Dew Point: 48 F (9 C)
Relative Humidity: 76%
Pressure (altimeter): 30.21 in. Hg (1023 hPa)
ob: LDZA 201630Z 36002KT CAVOK 13/09 Q1023 NOSIG
cycle: 16

Station Type Date Time Source
LDZA TAF 2020/10/20 12:30 UTC NOAA

TAF LDZA 201125Z 2012/2112 VRB02KT CAVOK TX19/2111Z TN06/2023Z PROB40 2021/2103 0400 FG VV002
BECMG 2103/2105 22008KT
TEMPO 2109/2112 22015G25KT

Example: see airport list